Time,TemperatureF,DewpointF,PressureIn,WindDirection,WindDirectionDegrees,WindSpeedMPH,WindSpeedGustMPH,Humidity,HourlyPrecipIn,Conditions,Clouds,dailyrainin,SoftwareType,DateUTC
2013-04-13 00:00:00,56.2,53.6,29.83,East,86,2.0,3.0,91,0.00,,,0.00,VWS V14.01,2013-04-13 07:00:00,
2013-04-13 00:03:00,56.2,53.6,29.83,SSE,163,3.0,4.0,91,0.00,,,0.00,VWS V14.01,2013-04-13 07:03:00,
2013-04-13 00:05:00,56.2,53.6,29.83,SSE,155,2.0,5.0,91,0.00,,,0.00,VWS V14.01,2013-04-13 07:05:00,
2013-04-13 00:09:00,56.3,53.7,29.83,SSW,198,1.0,3.0,91,0.00,,,0.00,VWS V14.01,2013-04-13 07:09:00,
2013-04-13 00:10:00,56.3,53.7,29.83,SE,136,2.0,3.0,91,0.00,,,0.00,VWS V14.01,2013-04-13 07:10:00,
2013-04-13 00:14:00,56.3,53.7,29.83,SSE,147,1.0,1.0,91,0.00,,,0.00,VWS V14.01,2013-04-13 07:14:00,
2013-04-13 00:15:00,56.3,53.7,29.83,SE,133,1.0,2.0,91,0.00,,,0.00,VWS V14.01,2013-04-13 07:15:00,
2013-04-13 00:19:00,56.4,53.8,29.83,SE,142,3.0,5.0,91,0.00,,,0.00,VWS V14.01,2013-04-13 07:19:00,
2013-04-13 00:21:00,56.5,53.9,29.83,ESE,111,2.0,4.0,91,0.00,,,0.00,VWS V14.01,2013-04-13 07:21:00,
2013-04-13 00:24:00,56.5,53.9,29.83,SE,141,1.0,2.0,91,0.00,,,0.00,VWS V14.01,2013-04-13 07:24:00,
2013-04-13 00:27:00,56.5,53.6,29.83,ESE,113,1.0,4.0,90,0.00,,,0.00,VWS V14.01,2013-04-13 07:27:00,
2013-04-13 00:30:00,56.6,53.7,29.83,ESE,121,1.0,2.0,90,0.00,,,0.00,VWS V14.01,2013-04-13 07:30:00,
2013-04-13 00:32:00,56.6,53.7,29.83,South,177,4.0,5.0,90,0.00,,,0.00,VWS V14.01,2013-04-13 07:32:00,
2013-04-13 00:36:00,56.6,53.7,29.83,SSW,201,1.0,3.0,90,0.00,,,0.00,VWS V14.01,2013-04-13 07:36:00,
2013-04-13 00:37:00,56.6,53.7,29.83,SSW,194,2.0,4.0,90,0.00,,,0.00,VWS V14.01,2013-04-13 07:37:00,
2013-04-13 00:41:00,56.6,53.7,29.83,SSW,201,1.0,2.0,90,0.00,,,0.00,VWS V14.01,2013-04-13 07:41:00,
2013-04-13 00:43:00,56.6,53.7,29.83,ESE,122,1.0,2.0,90,0.00,,,0.00,VWS V14.01,2013-04-13 07:43:00,
2013-04-13 00:46:00,56.6,53.7,29.83,SW,218,3.0,5.0,90,0.00,,,0.00,VWS V14.01,2013-04-13 07:46:00,
2013-04-13 00:48:00,56.6,53.7,29.83,ESE,122,2.0,3.0,90,0.00,,,0.00,VWS V14.01,2013-04-13 07:48:00,
2013-04-13 00:53:00,56.6,53.7,29.83,ESE,113,3.0,3.0,90,0.00,,,0.00,VWS V14.01,2013-04-13 07:53:00,
2013-04-13 00:59:00,56.7,53.8,29.83,East,96,1.0,2.0,90,0.00,,,0.00,VWS V14.01,2013-04-13 07:59:00,
2013-04-13 01:00:00,56.7,53.8,29.83,ESE,115,2.0,2.0,90,0.00,,,0.00,VWS V14.01,2013-04-13 08:00:00,
2013-04-13 01:05:00,56.8,53.9,29.83,ESE,120,0.0,2.0,90,0.00,,,0.00,VWS V14.01,2013-04-13 08:05:00,
2013-04-13 01:06:00,56.8,53.9,29.83,SE,137,1.0,1.0,90,0.00,,,0.00,VWS V14.01,2013-04-13 08:06:00,
2013-04-13 01:10:00,56.9,53.7,29.83,SE,141,0.0,0.0,89,0.00,,,0.00,VWS V14.01,2013-04-13 08:10:00,
2013-04-13 01:12:00,56.8,53.6,29.83,ESE,115,0.0,0.0,89,0.00,,,0.00,VWS V14.01,2013-04-13 08:12:00,
2013-04-13 01:15:00,56.8,53.6,29.83,SSE,153,0.0,0.0,89,0.00,,,0.00,VWS V14.01,2013-04-13 08:15:00,
2013-04-13 01:18:00,56.8,53.6,29.83,SE,140,0.0,0.0,89,0.00,,,0.00,VWS V14.01,2013-04-13 08:18:00,
2013-04-13 01:21:00,56.9,53.7,29.83,SSE,150,4.0,5.0,89,0.00,,,0.00,VWS V14.01,2013-04-13 08:21:00,
2013-04-13 01:23:00,56.8,53.6,29.83,SW,229,1.0,2.0,89,0.00,,,0.00,VWS V14.01,2013-04-13 08:23:00,
2013-04-13 01:27:00,56.9,53.7,29.83,SE,131,1.0,3.0,89,0.00,,,0.00,VWS V14.01,2013-04-13 08:27:00,
2013-04-13 01:29:00,56.9,53.7,29.83,SE,136,3.0,3.0,89,0.00,,,0.00,VWS V14.01,2013-04-13 08:29:00,
2013-04-13 01:32:00,56.8,53.6,29.83,SSW,210,1.0,2.0,89,0.00,,,0.00,VWS V14.01,2013-04-13 08:32:00,
2013-04-13 01:34:00,56.8,53.6,29.83,SE,127,0.0,0.0,89,0.00,,,0.00,VWS V14.01,2013-04-13 08:34:00,
2013-04-13 01:37:00,56.9,53.7,29.83,ESE,108,0.0,1.0,89,0.00,,,0.00,VWS V14.01,2013-04-13 08:37:00,
2013-04-13 01:41:00,56.9,53.7,29.83,ENE,58,2.0,2.0,89,0.00,,,0.00,VWS V14.01,2013-04-13 08:41:00,
2013-04-13 01:42:00,56.9,53.7,29.82,ENE,77,2.0,3.0,89,0.00,,,0.00,VWS V14.01,2013-04-13 08:42:00,
2013-04-13 01:47:00,56.9,53.7,29.82,ENE,72,2.0,4.0,89,0.00,,,0.00,VWS V14.01,2013-04-13 08:47:00,
2013-04-13 01:48:00,56.9,53.7,29.82,ESE,105,1.0,3.0,89,0.00,,,0.00,VWS V14.01,2013-04-13 08:48:00,
2013-04-13 01:53:00,57.0,53.8,29.82,ESE,110,2.0,3.0,89,0.00,,,0.00,VWS V14.01,2013-04-13 08:53:00,
2013-04-13 01:54:00,57.0,53.8,29.82,ESE,103,2.0,3.0,89,0.00,,,0.00,VWS V14.01,2013-04-13 08:54:00,
2013-04-13 01:58:00,57.0,53.8,29.82,SE,124,1.0,2.0,89,0.00,,,0.00,VWS V14.01,2013-04-13 08:58:00,
2013-04-13 02:00:00,57.0,53.8,29.82,SE,128,1.0,2.0,89,0.00,,,0.00,VWS V14.01,2013-04-13 09:00:00,
2013-04-13 02:04:00,57.1,53.9,29.82,East,89,1.0,2.0,89,0.00,,,0.00,VWS V14.01,2013-04-13 09:04:00,
2013-04-13 02:05:00,57.1,53.9,29.82,ESE,110,0.0,1.0,89,0.00,,,0.00,VWS V14.01,2013-04-13 09:05:00,
2013-04-13 02:10:00,57.1,53.9,29.82,ESE,115,1.0,1.0,89,0.00,,,0.00,VWS V14.01,2013-04-13 09:10:00,
2013-04-13 02:12:00,57.1,53.9,29.82,SE,143,1.0,2.0,89,0.00,,,0.00,VWS V14.01,2013-04-13 09:12:00,
2013-04-13 02:15:00,57.1,53.9,29.82,ESE,115,0.0,2.0,89,0.00,,,0.00,VWS V14.01,2013-04-13 09:15:00,
2013-04-13 02:18:00,57.1,53.9,29.82,ESE,110,1.0,1.0,89,0.00,,,0.00,VWS V14.01,2013-04-13 09:18:00,
2013-04-13 02:20:00,57.2,54.0,29.81,SE,136,1.0,1.0,89,0.00,,,0.00,VWS V14.01,2013-04-13 09:20:00,
2013-04-13 02:24:00,57.1,53.9,29.81,East,82,2.0,2.0,89,0.00,,,0.00,VWS V14.01,2013-04-13 09:24:00,
2013-04-13 02:25:00,57.1,53.9,29.81,East,80,1.0,1.0,89,0.00,,,0.00,VWS V14.01,2013-04-13 09:25:00,
2013-04-13 02:29:00,57.1,53.9,29.81,SE,127,2.0,3.0,89,0.00,,,0.00,VWS V14.01,2013-04-13 09:29:00,
2013-04-13 02:30:00,57.1,53.9,29.81,SE,131,3.0,4.0,89,0.00,,,0.00,VWS V14.01,2013-04-13 09:30:00,
2013-04-13 02:35:00,57.0,53.8,29.81,SSE,159,2.0,2.0,89,0.00,,,0.00,VWS V14.01,2013-04-13 09:35:00,
2013-04-13 02:36:00,57.0,53.8,29.81,SE,146,1.0,2.0,89,0.00,,,0.00,VWS V14.01,2013-04-13 09:36:00,
2013-04-13 02:41:00,57.0,53.8,29.81,SE,127,2.0,3.0,89,0.00,,,0.00,VWS V14.01,2013-04-13 09:41:00,
2013-04-13 02:44:00,57.0,53.8,29.81,South,176,0.0,1.0,89,0.00,,,0.00,VWS V14.01,2013-04-13 09:44:00,
2013-04-13 02:47:00,56.9,53.7,29.81,SE,136,3.0,3.0,89,0.00,,,0.00,VWS V14.01,2013-04-13 09:47:00,
2013-04-13 02:49:00,56.9,53.7,29.81,ESE,118,1.0,1.0,89,0.00,,,0.00,VWS V14.01,2013-04-13 09:49:00,
2013-04-13 02:53:00,56.9,53.7,29.81,SE,131,1.0,1.0,89,0.00,,,0.00,VWS V14.01,2013-04-13 09:53:00,
2013-04-13 02:55:00,56.9,53.7,29.81,SE,124,2.0,2.0,89,0.00,,,0.00,VWS V14.01,2013-04-13 09:55:00,
2013-04-13 02:59:00,56.9,53.7,29.81,East,94,1.0,2.0,89,0.00,,,0.00,VWS V14.01,2013-04-13 09:59:00,
2013-04-13 03:00:00,56.9,53.7,29.81,SE,125,0.0,0.0,89,0.00,,,0.00,VWS V14.01,2013-04-13 10:00:00,
2013-04-13 03:04:00,56.9,53.7,29.81,ESE,118,1.0,2.0,89,0.00,,,0.00,VWS V14.01,2013-04-13 10:04:00,
2013-04-13 03:09:00,56.8,53.6,29.81,ESE,108,0.0,1.0,89,0.00,,,0.00,VWS V14.01,2013-04-13 10:09:00,
2013-04-13 03:14:00,56.9,53.7,29.81,ESE,105,1.0,3.0,89,0.00,,,0.00,VWS V14.01,2013-04-13 10:14:00,
2013-04-13 03:16:00,56.8,53.6,29.81,ESE,123,2.0,3.0,89,0.00,,,0.00,VWS V14.01,2013-04-13 10:16:00,
2013-04-13 03:19:00,56.8,53.6,29.81,SE,127,3.0,3.0,89,0.00,,,0.00,VWS V14.01,2013-04-13 10:19:00,
2013-04-13 03:24:00,56.7,53.5,29.81,ENE,78,2.0,3.0,89,0.00,,,0.00,VWS V14.01,2013-04-13 10:24:00,
2013-04-13 03:26:00,56.7,53.5,29.81,East,89,2.0,3.0,89,0.00,,,0.00,VWS V14.01,2013-04-13 10:26:00,
2013-04-13 03:30:00,56.7,53.5,29.81,ESE,115,2.0,3.0,89,0.00,,,0.00,VWS V14.01,2013-04-13 10:30:00,
2013-04-13 03:31:00,56.7,53.5,29.81,East,98,2.0,3.0,89,0.00,,,0.00,VWS V14.01,2013-04-13 10:31:00,
2013-04-13 03:35:00,56.7,53.5,29.81,SE,131,2.0,3.0,89,0.00,,,0.00,VWS V14.01,2013-04-13 10:35:00,
2013-04-13 03:37:00,56.6,53.4,29.81,East,86,3.0,6.0,89,0.00,,,0.00,VWS V14.01,2013-04-13 10:37:00,
2013-04-13 03:41:00,56.6,53.4,29.81,East,92,3.0,4.0,89,0.00,,,0.00,VWS V14.01,2013-04-13 10:41:00,
2013-04-13 03:43:00,56.6,53.4,29.80,ESE,106,1.0,2.0,89,0.00,,,0.00,VWS V14.01,2013-04-13 10:43:00,
2013-04-13 03:47:00,56.6,53.7,29.80,SE,131,1.0,1.0,90,0.00,,,0.00,VWS V14.01,2013-04-13 10:47:00,
2013-04-13 03:48:00,56.6,53.7,29.80,East,101,3.0,3.0,90,0.00,,,0.00,VWS V14.01,2013-04-13 10:48:00,
2013-04-13 03:53:00,56.6,53.7,29.80,ESE,105,1.0,1.0,90,0.00,,,0.00,VWS V14.01,2013-04-13 10:53:00,
2013-04-13 03:54:00,56.6,53.7,29.80,SE,136,2.0,3.0,90,0.00,,,0.00,VWS V14.01,2013-04-13 10:54:00,
2013-04-13 03:58:00,56.7,53.8,29.80,East,81,3.0,3.0,90,0.00,,,0.00,VWS V14.01,2013-04-13 10:58:00,
2013-04-13 04:00:00,56.6,53.4,29.80,ESE,113,0.0,0.0,89,0.00,,,0.00,VWS V14.01,2013-04-13 11:00:00,
2013-04-13 04:04:00,56.6,53.7,29.80,East,89,2.0,2.0,90,0.00,,,0.00,VWS V14.01,2013-04-13 11:04:00,
2013-04-13 04:07:00,56.6,53.4,29.80,East,90,1.0,3.0,89,0.00,,,0.00,VWS V14.01,2013-04-13 11:07:00,
2013-04-13 04:09:00,56.6,53.7,29.80,East,94,1.0,2.0,90,0.00,,,0.00,VWS V14.01,2013-04-13 11:09:00,
2013-04-13 04:12:00,56.6,53.7,29.80,East,86,2.0,2.0,90,0.00,,,0.00,VWS V14.01,2013-04-13 11:12:00,
2013-04-13 04:14:00,56.6,53.7,29.80,East,96,0.0,1.0,90,0.00,,,0.00,VWS V14.01,2013-04-13 11:14:00,
2013-04-13 04:17:00,56.7,53.8,29.80,ENE,72,2.0,2.0,90,0.00,,,0.00,VWS V14.01,2013-04-13 11:17:00,
2013-04-13 04:22:00,56.6,53.7,29.80,East,101,1.0,3.0,90,0.00,,,0.00,VWS V14.01,2013-04-13 11:22:00,
2013-04-13 04:25:00,56.6,53.4,29.80,SE,127,1.0,2.0,89,0.00,,,0.00,VWS V14.01,2013-04-13 11:25:00,
2013-04-13 04:27:00,56.5,53.3,29.80,NE,53,0.0,0.0,89,0.00,,,0.00,VWS V14.01,2013-04-13 11:27:00,
2013-04-13 04:30:00,56.6,53.7,29.80,East,82,3.0,6.0,90,0.00,,,0.00,VWS V14.01,2013-04-13 11:30:00,
2013-04-13 04:32:00,56.5,53.3,29.80,ENE,71,5.0,5.0,89,0.00,,,0.00,VWS V14.01,2013-04-13 11:32:00,
2013-04-13 04:37:00,56.4,53.5,29.80,SE,128,2.0,3.0,90,0.00,,,0.00,VWS V14.01,2013-04-13 11:37:00,
2013-04-13 04:39:00,56.4,53.5,29.80,ESE,115,1.0,2.0,90,0.00,,,0.00,VWS V14.01,2013-04-13 11:39:00,
2013-04-13 04:44:00,56.4,53.5,29.80,ESE,115,1.0,3.0,90,0.00,,,0.00,VWS V14.01,2013-04-13 11:44:00,
2013-04-13 04:45:00,56.3,53.4,29.80,East,92,3.0,3.0,90,0.00,,,0.00,VWS V14.01,2013-04-13 11:45:00,
2013-04-13 04:49:00,56.3,53.4,29.80,ENE,70,2.0,2.0,90,0.00,,,0.00,VWS V14.01,2013-04-13 11:49:00,
2013-04-13 04:52:00,56.3,53.4,29.80,ENE,68,3.0,3.0,90,0.00,,,0.00,VWS V14.01,2013-04-13 11:52:00,
2013-04-13 04:55:00,56.3,53.4,29.80,SE,127,1.0,3.0,90,0.00,,,0.00,VWS V14.01,2013-04-13 11:55:00,
2013-04-13 04:58:00,56.3,53.4,29.80,ESE,108,1.0,1.0,90,0.00,,,0.00,VWS V14.01,2013-04-13 11:58:00,
2013-04-13 05:01:00,56.3,53.4,29.80,SE,124,1.0,2.0,90,0.00,,,0.00,VWS V14.01,2013-04-13 12:01:00,
2013-04-13 05:03:00,56.2,53.3,29.80,ESE,103,4.0,4.0,90,0.00,,,0.00,VWS V14.01,2013-04-13 12:03:00,
2013-04-13 05:07:00,56.1,53.2,29.80,ESE,117,2.0,2.0,90,0.00,,,0.00,VWS V14.01,2013-04-13 12:07:00,
2013-04-13 05:09:00,56.1,53.2,29.80,SE,134,2.0,2.0,90,0.00,,,0.00,VWS V14.01,2013-04-13 12:09:00,
2013-04-13 05:13:00,56.1,53.2,29.80,East,82,1.0,2.0,90,0.00,,,0.00,VWS V14.01,2013-04-13 12:13:00,
2013-04-13 05:14:00,56.1,53.2,29.80,East,89,1.0,2.0,90,0.00,,,0.00,VWS V14.01,2013-04-13 12:14:00,
2013-04-13 05:18:00,56.2,53.3,29.80,SE,124,1.0,2.0,90,0.00,,,0.00,VWS V14.01,2013-04-13 12:18:00,
2013-04-13 05:24:00,56.2,53.3,29.79,SE,127,1.0,2.0,90,0.00,,,0.00,VWS V14.01,2013-04-13 12:24:00,
2013-04-13 05:25:00,56.2,53.3,29.79,ESE,103,2.0,2.0,90,0.00,,,0.00,VWS V14.01,2013-04-13 12:25:00,
2013-04-13 05:29:00,56.2,53.3,29.80,ESE,122,2.0,2.0,90,0.00,,,0.00,VWS V14.01,2013-04-13 12:29:00,
2013-04-13 05:31:00,56.2,53.3,29.80,ESE,110,0.0,1.0,90,0.00,,,0.00,VWS V14.01,2013-04-13 12:31:00,
2013-04-13 05:34:00,56.1,53.2,29.80,ESE,110,0.0,1.0,90,0.00,,,0.00,VWS V14.01,2013-04-13 12:34:00,
2013-04-13 05:39:00,56.1,53.2,29.80,ESE,110,0.0,0.0,90,0.00,,,0.00,VWS V14.01,2013-04-13 12:39:00,
2013-04-13 05:45:00,56.1,53.2,29.80,ESE,118,1.0,2.0,90,0.00,,,0.00,VWS V14.01,2013-04-13 12:45:00,
2013-04-13 05:47:00,56.1,53.2,29.79,ESE,115,1.0,1.0,90,0.00,,,0.00,VWS V14.01,2013-04-13 12:47:00,
2013-04-13 05:50:00,56.1,53.2,29.79,East,94,1.0,1.0,90,0.00,,,0.00,VWS V14.01,2013-04-13 12:50:00,
2013-04-13 05:52:00,56.1,53.2,29.80,SE,124,0.0,0.0,90,0.00,,,0.00,VWS V14.01,2013-04-13 12:52:00,
2013-04-13 05:55:00,56.1,53.2,29.80,SSE,152,0.0,0.0,90,0.00,,,0.00,VWS V14.01,2013-04-13 12:55:00,
2013-04-13 05:58:00,56.2,53.3,29.80,ENE,71,1.0,3.0,90,0.00,,,0.00,VWS V14.01,2013-04-13 12:58:00,
2013-04-13 06:00:00,56.2,53.3,29.80,East,97,2.0,2.0,90,0.00,,,0.00,VWS V14.01,2013-04-13 13:00:00,
2013-04-13 06:05:00,56.2,53.3,29.80,ESE,110,2.0,2.0,90,0.00,,,0.00,VWS V14.01,2013-04-13 13:05:00,
2013-04-13 06:11:00,56.2,53.3,29.80,East,86,1.0,2.0,90,0.00,,,0.00,VWS V14.01,2013-04-13 13:11:00,
2013-04-13 06:12:00,56.2,53.3,29.80,East,87,0.0,1.0,90,0.00,,,0.00,VWS V14.01,2013-04-13 13:12:00,
2013-04-13 06:17:00,56.2,53.3,29.80,ESE,104,0.0,1.0,90,0.00,,,0.00,VWS V14.01,2013-04-13 13:17:00,
2013-04-13 06:23:00,56.2,53.3,29.80,SE,134,1.0,2.0,90,0.00,,,0.00,VWS V14.01,2013-04-13 13:23:00,
2013-04-13 06:29:00,56.2,53.3,29.80,SE,128,1.0,2.0,90,0.00,,,0.00,VWS V14.01,2013-04-13 13:29:00,
2013-04-13 06:30:00,56.2,53.3,29.80,East,98,1.0,1.0,90,0.00,,,0.00,VWS V14.01,2013-04-13 13:30:00,
2013-04-13 06:34:00,56.1,53.2,29.80,ESE,112,1.0,1.0,90,0.00,,,0.00,VWS V14.01,2013-04-13 13:34:00,
2013-04-13 06:35:00,56.1,53.2,29.80,East,90,1.0,1.0,90,0.00,,,0.00,VWS V14.01,2013-04-13 13:35:00,
2013-04-13 06:39:00,56.2,53.3,29.80,East,84,1.0,1.0,90,0.00,,,0.00,VWS V14.01,2013-04-13 13:39:00,
2013-04-13 06:40:00,56.2,53.3,29.80,East,98,2.0,2.0,90,0.00,,,0.00,VWS V14.01,2013-04-13 13:40:00,
2013-04-13 06:45:00,56.2,53.3,29.81,ENE,65,2.0,4.0,90,0.00,,,0.00,VWS V14.01,2013-04-13 13:45:00,
2013-04-13 06:46:00,56.2,53.3,29.81,ESE,123,1.0,2.0,90,0.00,,,0.00,VWS V14.01,2013-04-13 13:46:00,
2013-04-13 06:51:00,56.2,53.3,29.81,SE,124,1.0,2.0,90,0.00,,,0.00,VWS V14.01,2013-04-13 13:51:00,
2013-04-13 06:54:00,56.2,53.3,29.81,ENE,76,2.0,2.0,90,0.00,,,0.00,VWS V14.01,2013-04-13 13:54:00,
2013-04-13 06:58:00,56.2,53.3,29.81,ESE,118,1.0,2.0,90,0.00,,,0.00,VWS V14.01,2013-04-13 13:58:00,
2013-04-13 06:59:00,56.2,53.6,29.81,East,101,3.0,3.0,91,0.00,,,0.00,VWS V14.01,2013-04-13 13:59:00,
2013-04-13 07:03:00,56.2,53.6,29.81,East,93,3.0,4.0,91,0.00,,,0.00,VWS V14.01,2013-04-13 14:03:00,
2013-04-13 07:06:00,56.2,53.3,29.81,ESE,122,2.0,3.0,90,0.00,,,0.00,VWS V14.01,2013-04-13 14:06:00,
2013-04-13 07:10:00,56.1,53.5,29.81,ENE,59,2.0,2.0,91,0.00,,,0.00,VWS V14.01,2013-04-13 14:10:00,
2013-04-13 07:11:00,56.2,53.6,29.81,ENE,66,1.0,2.0,91,0.00,,,0.00,VWS V14.01,2013-04-13 14:11:00,
2013-04-13 07:16:00,56.2,53.6,29.81,ENE,69,2.0,2.0,91,0.00,,,0.00,VWS V14.01,2013-04-13 14:16:00,
2013-04-13 07:17:00,56.2,53.6,29.81,East,101,0.0,2.0,91,0.00,,,0.00,VWS V14.01,2013-04-13 14:17:00,
2013-04-13 07:21:00,56.3,53.7,29.81,ESE,102,2.0,3.0,91,0.00,,,0.00,VWS V14.01,2013-04-13 14:21:00,
2013-04-13 07:22:00,56.2,53.6,29.81,ESE,110,1.0,2.0,91,0.00,,,0.00,VWS V14.01,2013-04-13 14:22:00,
2013-04-13 07:27:00,56.3,53.7,29.81,ESE,106,1.0,2.0,91,0.00,,,0.00,VWS V14.01,2013-04-13 14:27:00,
2013-04-13 07:29:00,56.3,53.7,29.81,ESE,115,1.0,2.0,91,0.00,,,0.00,VWS V14.01,2013-04-13 14:29:00,
2013-04-13 07:33:00,56.3,53.7,29.82,SE,128,1.0,2.0,91,0.00,,,0.00,VWS V14.01,2013-04-13 14:33:00,
2013-04-13 07:34:00,56.3,53.7,29.82,SE,128,1.0,1.0,91,0.00,,,0.00,VWS V14.01,2013-04-13 14:34:00,